Time;durP1;ratioP1;P1;durP2;ratioP2;P2;SDS_P1;SDS_P2;PMS_P1;PMS_P2;Temp;Humidity;BMP_temperature;BMP_pressure;BME280_temperature;BME280_humidity;BME280_pressure;Samples;Min_cycle;Max_cycle;Signal;HPM_P1;HPM_P2
2023/12/18 00:01:41;;;;;;;14.00;12.20;;;;;;;4.93;98.25;99246.98;106314;1268;23495;-75
2023/12/18 00:04:09;;;;;;;14.90;12.00;;;;;;;4.92;98.56;99250.20;106351;1272;22531;-75
2023/12/18 00:06:37;;;;;;;13.20;11.80;;;;;;;4.93;98.64;99244.64;106428;1276;24092;-75
2023/12/18 00:09:05;;;;;;;13.80;11.40;;;;;;;4.93;98.64;99243.13;106379;1283;22541;-75
2023/12/18 00:11:33;;;;;;;14.70;12.80;;;;;;;4.89;98.67;99243.35;106405;1273;24345;-75
2023/12/18 00:14:01;;;;;;;13.40;11.30;;;;;;;4.87;98.45;99242.71;106325;1284;22545;-75
2023/12/18 00:16:30;;;;;;;13.00;10.60;;;;;;;4.86;98.52;99248.25;106327;1283;25426;-75
2023/12/18 00:18:58;;;;;;;11.70;10.50;;;;;;;4.87;98.52;99251.48;106312;1280;23893;-74
2023/12/18 00:21:26;;;;;;;12.20;10.40;;;;;;;4.88;98.40;99251.02;106352;1280;23266;-74
2023/12/18 00:23:55;;;;;;;12.60;11.20;;;;;;;4.88;98.26;99253.06;106249;1273;22553;-74
2023/12/18 00:26:23;;;;;;;13.70;12.00;;;;;;;4.87;98.10;99251.48;106152;1284;22665;-75
2023/12/18 00:28:51;;;;;;;12.80;11.20;;;;;;;4.85;98.00;99251.67;106257;1284;25439;-76
2023/12/18 00:31:19;;;;;;;13.90;10.90;;;;;;;4.83;98.24;99245.17;106310;1270;22570;-74
2023/12/18 00:33:47;;;;;;;13.40;11.50;;;;;;;4.82;98.52;99246.42;106291;1273;24344;-75
2023/12/18 00:36:16;;;;;;;14.40;12.30;;;;;;;4.83;98.38;99242.92;106240;1278;25252;-75
2023/12/18 00:38:44;;;;;;;13.60;12.30;;;;;;;4.81;98.20;99236.84;106350;1283;26051;-76
2023/12/18 00:41:12;;;;;;;12.60;11.20;;;;;;;4.78;98.09;99240.30;106299;1270;25429;-74
2023/12/18 00:43:40;;;;;;;13.90;10.90;;;;;;;4.79;98.25;99240.16;106260;1283;25480;-75
2023/12/18 00:46:09;;;;;;;12.70;11.40;;;;;;;4.80;98.27;99241.40;106342;1283;25259;-77
2023/12/18 00:48:36;;;;;;;15.90;12.70;;;;;;;4.83;98.73;99240.70;106093;1271;22544;-78
2023/12/18 00:51:05;;;;;;;14.30;12.70;;;;;;;4.85;98.70;99243.89;106249;1269;23145;-79
2023/12/18 00:53:33;;;;;;;13.20;11.00;;;;;;;4.81;98.55;99244.59;106608;1271;25371;-80
2023/12/18 00:56:01;;;;;;;12.80;10.80;;;;;;;4.78;98.66;99240.02;106678;1281;22597;-79
2023/12/18 00:58:29;;;;;;;13.00;11.00;;;;;;;4.83;99.23;99234.54;106651;1284;22766;-79
2023/12/18 01:00:57;;;;;;;15.30;12.40;;;;;;;4.93;99.70;99231.13;106714;1270;25259;-77
2023/12/18 01:03:25;;;;;;;14.80;11.30;;;;;;;5.02;99.15;99232.14;106283;1284;22561;-77
2023/12/18 01:05:54;;;;;;;13.10;11.70;;;;;;;4.96;98.55;99230.43;106328;1270;24397;-76
2023/12/18 01:08:22;;;;;;;12.90;11.40;;;;;;;4.86;98.67;99226.96;106342;1284;22546;-78
2023/12/18 01:10:50;;;;;;;11.80;10.60;;;;;;;4.82;98.64;99228.27;106253;1282;22538;-76
2023/12/18 01:13:18;;;;;;;13.10;11.50;;;;;;;4.78;98.92;99222.51;106292;1273;24296;-77
2023/12/18 01:15:45;;;;;;;12.30;10.80;;;;;;;4.76;98.91;99221.98;106248;1270;22563;-76
2023/12/18 01:18:14;;;;;;;13.00;11.10;;;;;;;4.75;98.93;99216.11;106257;1273;24242;-76
2023/12/18 01:20:42;;;;;;;12.70;10.80;;;;;;;4.70;98.89;99216.86;106301;1284;24224;-77
2023/12/18 01:23:10;;;;;;;11.60;10.40;;;;;;;4.68;99.05;99212.33;106181;1284;26717;-77
2023/12/18 01:25:38;;;;;;;11.90;10.30;;;;;;;4.70;99.17;99208.15;106160;1284;22559;-76
2023/12/18 01:28:06;;;;;;;12.40;10.40;;;;;;;4.70;99.07;99203.09;106233;1271;22545;-77
2023/12/18 01:30:34;;;;;;;11.90;10.30;;;;;;;4.68;99.01;99199.55;106270;1277;24229;-78
2023/12/18 01:33:03;;;;;;;11.50;10.10;;;;;;;4.64;99.12;99195.02;106271;1273;22657;-78
2023/12/18 01:35:31;;;;;;;11.30;10.20;;;;;;;4.62;99.00;99189.85;106726;1277;24267;-76
2023/12/18 01:37:59;;;;;;;12.60;10.60;;;;;;;4.61;99.02;99189.83;106287;1261;25445;-75
2023/12/18 01:40:27;;;;;;;13.00;10.80;;;;;;;4.62;99.37;99183.73;106365;1270;24485;-76
2023/12/18 01:42:55;;;;;;;12.50;11.00;;;;;;;4.60;99.26;99185.90;106454;1284;25431;-76
2023/12/18 01:45:23;;;;;;;11.00;9.80;;;;;;;4.60;99.18;99183.23;106234;1284;22565;-77
2023/12/18 01:47:55;;;;;;;13.60;11.70;;;;;;;4.60;99.20;99177.56;106289;1284;23919;-78
2023/12/18 01:50:27;;;;;;;11.60;10.00;;;;;;;4.61;99.10;99180.14;106357;1284;24381;-77
2023/12/18 01:52:55;;;;;;;11.60;9.90;;;;;;;4.62;99.11;99174.91;106332;1284;22642;-78
2023/12/18 01:55:23;;;;;;;12.40;10.00;;;;;;;4.64;99.26;99168.75;106391;1270;24295;-77
2023/12/18 01:57:51;;;;;;;11.10;9.90;;;;;;;4.64;99.12;99173.40;106638;1268;22808;-76
2023/12/18 02:00:19;;;;;;;12.60;10.20;;;;;;;4.64;98.68;99172.38;106377;1284;25478;-77
2023/12/18 02:02:48;;;;;;;10.80;9.70;;;;;;;4.63;98.82;99168.52;106734;1276;22633;-75
2023/12/18 02:05:16;;;;;;;11.50;10.00;;;;;;;4.64;99.17;99165.27;106319;1277;22688;-76
2023/12/18 02:07:45;;;;;;;12.90;10.10;;;;;;;4.64;99.04;99160.45;106385;1284;25382;-76
2023/12/18 02:10:13;;;;;;;12.00;10.70;;;;;;;4.64;99.09;99157.63;106326;1270;25272;-76
2023/12/18 02:12:41;;;;;;;11.80;10.70;;;;;;;4.62;98.87;99159.15;106252;1284;22660;-78
2023/12/18 02:15:09;;;;;;;12.20;10.60;;;;;;;4.59;98.69;99160.91;106564;1284;24393;-78
2023/12/18 02:17:37;;;;;;;12.00;10.60;;;;;;;4.57;99.01;99159.23;106731;1284;22546;-77
2023/12/18 02:20:07;;;;;;;12.10;10.80;;;;;;;4.61;98.79;99159.93;106599;1280;22566;-77
2023/12/18 02:22:56;;;;;;;12.30;10.90;;;;;;;4.61;98.83;99158.25;106376;1270;24287;-77
2023/12/18 02:25:24;;;;;;;12.90;10.30;;;;;;;4.58;98.61;99149.17;106641;1270;22749;-79
2023/12/18 02:27:52;;;;;;;12.30;11.00;;;;;;;4.58;98.29;99150.70;106546;1283;24285;-77
2023/12/18 02:30:24;;;;;;;13.00;10.80;;;;;;;4.60;98.53;99146.85;106654;1284;24257;-76
2023/12/18 02:32:52;;;;;;;12.90;10.00;;;;;;;4.62;98.48;99151.29;106298;1270;22558;-76
2023/12/18 02:35:20;;;;;;;12.10;10.30;;;;;;;4.62;98.74;99148.45;106297;1272;22584;-76
2023/12/18 02:37:49;;;;;;;11.80;10.50;;;;;;;4.59;98.23;99147.44;106293;1284;22554;-77
2023/12/18 02:40:17;;;;;;;12.00;10.10;;;;;;;4.57;98.24;99145.05;106632;1277;22570;-76
2023/12/18 02:42:45;;;;;;;10.40;9.40;;;;;;;4.56;98.44;99142.72;106537;1284;24420;-77
2023/12/18 02:45:13;;;;;;;10.60;9.40;;;;;;;4.55;98.17;99138.21;106734;1284;22667;-76
2023/12/18 02:47:41;;;;;;;11.60;10.50;;;;;;;4.53;98.21;99136.24;106654;1268;22542;-76
2023/12/18 02:50:10;;;;;;;11.30;10.10;;;;;;;4.53;97.83;99141.04;106309;1284;22636;-76
2023/12/18 02:52:38;;;;;;;11.50;8.80;;;;;;;4.52;97.96;99131.73;106307;1276;24216;-76
2023/12/18 02:55:07;;;;;;;12.00;9.70;;;;;;;4.53;98.20;99133.41;106280;1276;22648;-76
2023/12/18 02:57:35;;;;;;;10.30;9.40;;;;;;;4.52;98.09;99136.78;106305;1277;24488;-78
2023/12/18 03:00:04;;;;;;;10.70;9.60;;;;;;;4.50;97.98;99130.66;106765;1269;22547;-77
2023/12/18 03:02:32;;;;;;;11.40;9.10;;;;;;;4.46;97.61;99126.73;106390;1283;22540;-78
2023/12/18 03:05:00;;;;;;;11.50;8.90;;;;;;;4.46;97.31;99126.56;106385;1270;23132;-76
2023/12/18 03:07:28;;;;;;;10.90;9.80;;;;;;;4.45;97.75;99124.66;106386;1276;22537;-76
2023/12/18 03:09:56;;;;;;;11.60;10.00;;;;;;;4.44;97.64;99125.61;106329;1275;25500;-76
2023/12/18 03:12:24;;;;;;;10.80;9.70;;;;;;;4.44;97.53;99121.42;106717;1283;22543;-77
2023/12/18 03:14:52;;;;;;;11.40;10.20;;;;;;;4.42;97.42;99114.02;106689;1269;25113;-75
2023/12/18 03:17:20;;;;;;;10.90;9.70;;;;;;;4.41;97.13;99117.46;106319;1275;22554;-79
2023/12/18 03:19:48;;;;;;;9.50;8.60;;;;;;;4.40;97.28;99119.55;106301;1272;22709;-78
2023/12/18 03:22:16;;;;;;;9.20;8.30;;;;;;;4.41;97.41;99122.95;106779;1283;22508;-77
2023/12/18 03:24:44;;;;;;;10.00;9.00;;;;;;;4.41;98.29;99118.96;106976;1283;22541;-78
2023/12/18 03:27:12;;;;;;;10.20;9.20;;;;;;;4.41;97.70;99117.90;106332;1280;22564;-80
2023/12/18 03:29:41;;;;;;;9.60;8.30;;;;;;;4.41;97.41;99116.88;106334;1284;25134;-78
2023/12/18 03:32:08;;;;;;;11.50;10.00;;;;;;;4.40;96.95;99117.34;106685;1284;22562;-78
2023/12/18 03:34:36;;;;;;;9.90;8.60;;;;;;;4.39;97.26;99113.83;106333;1283;25317;-78
2023/12/18 03:37:04;;;;;;;10.50;9.50;;;;;;;4.39;97.28;99114.48;106665;1261;23970;-78
2023/12/18 03:39:32;;;;;;;10.00;9.00;;;;;;;4.37;97.40;99116.92;106701;1277;22572;-78
2023/12/18 03:42:00;;;;;;;12.00;10.70;;;;;;;4.36;97.33;99116.54;106294;1276;24324;-77
2023/12/18 03:44:29;;;;;;;10.00;9.00;;;;;;;4.34;97.26;99118.98;106325;1272;24358;-77
2023/12/18 03:46:57;;;;;;;10.60;9.50;;;;;;;4.31;97.09;99119.07;106327;1273;22548;-77
2023/12/18 03:49:25;;;;;;;10.80;8.60;;;;;;;4.31;97.08;99115.51;106301;1260;25546;-76
2023/12/18 03:51:53;;;;;;;10.10;9.10;;;;;;;4.31;97.13;99113.33;106304;1261;22565;-78
2023/12/18 03:54:21;;;;;;;9.80;8.80;;;;;;;4.30;97.43;99114.58;106703;1281;24575;-77
2023/12/18 03:56:49;;;;;;;8.80;7.90;;;;;;;4.29;97.28;99115.48;106260;1283;25504;-77
2023/12/18 03:59:17;;;;;;;9.90;8.40;;;;;;;4.28;96.96;99110.77;106274;1283;23977;-77
2023/12/18 04:01:45;;;;;;;8.90;8.00;;;;;;;4.28;97.61;99112.33;106297;1283;23356;-76
2023/12/18 04:04:13;;;;;;;9.30;8.20;;;;;;;4.29;97.36;99110.85;106282;1271;25577;-77
2023/12/18 04:06:45;;;;;;;9.50;8.30;;;;;;;4.30;97.20;99113.13;106355;1276;24043;-77
2023/12/18 04:09:13;;;;;;;9.60;8.70;;;;;;;4.33;97.16;99108.95;106321;1271;22542;-77
2023/12/18 04:11:41;;;;;;;10.20;9.00;;;;;;;4.33;97.03;99110.50;106241;1262;26678;-78
2023/12/18 04:14:09;;;;;;;9.90;8.70;;;;;;;4.35;96.96;99115.05;106379;1270;24467;-76
2023/12/18 04:16:37;;;;;;;9.30;8.40;;;;;;;4.34;97.08;99115.58;106435;1277;24224;-78
2023/12/18 04:19:06;;;;;;;9.90;8.90;;;;;;;4.34;96.76;99116.53;106270;1283;23271;-77
2023/12/18 04:21:34;;;;;;;8.40;7.50;;;;;;;4.34;96.99;99119.10;106488;1271;24277;-78
2023/12/18 04:24:02;;;;;;;9.20;8.20;;;;;;;4.37;96.81;99118.69;106789;1273;25021;-78
2023/12/18 04:26:30;;;;;;;10.60;9.50;;;;;;;4.38;96.66;99117.81;106578;1269;22540;-77
2023/12/18 04:28:58;;;;;;;9.50;8.10;;;;;;;4.35;96.60;99118.08;106231;1269;24292;-76
2023/12/18 04:31:26;;;;;;;9.70;8.70;;;;;;;4.33;96.72;99116.99;106293;1269;25568;-76
2023/12/18 04:33:54;;;;;;;9.60;8.60;;;;;;;4.34;96.29;99117.50;106752;1283;24296;-77
2023/12/18 04:36:23;;;;;;;9.10;8.10;;;;;;;4.33;96.40;99118.83;106810;1277;24256;-77
2023/12/18 04:38:51;;;;;;;9.60;8.50;;;;;;;4.35;96.40;99114.77;106401;1284;22537;-76
2023/12/18 04:41:20;;;;;;;10.30;8.30;;;;;;;4.35;96.30;99111.14;106676;1284;24228;-77
2023/12/18 04:43:48;;;;;;;9.80;8.80;;;;;;;4.37;96.54;99113.61;106775;1284;26691;-77
2023/12/18 04:46:17;;;;;;;9.60;8.40;;;;;;;4.37;96.06;99117.79;106508;1277;23046;-77
2023/12/18 04:48:45;;;;;;;9.40;7.80;;;;;;;4.39;95.75;99115.39;106816;1277;22539;-77
2023/12/18 04:51:13;;;;;;;8.30;7.50;;;;;;;4.42;95.85;99116.73;106303;1270;22503;-76
2023/12/18 04:53:41;;;;;;;8.60;7.70;;;;;;;4.44;96.07;99114.08;106331;1270;22659;-76
2023/12/18 04:56:09;;;;;;;9.80;8.50;;;;;;;4.44;95.81;99115.73;106186;1271;25205;-76
2023/12/18 04:58:37;;;;;;;9.00;8.10;;;;;;;4.43;95.80;99118.67;106322;1276;25386;-75
2023/12/18 05:01:05;;;;;;;9.20;8.30;;;;;;;4.42;95.52;99118.52;106261;1283;22570;-75
2023/12/18 05:03:33;;;;;;;9.10;8.20;;;;;;;4.41;95.19;99117.83;106323;1275;24224;-76
2023/12/18 05:06:27;;;;;;;9.40;8.00;;;;;;;4.39;95.20;99121.91;106343;1271;22563;-77
2023/12/18 05:08:55;;;;;;;9.00;8.10;;;;;;;4.41;95.26;99126.70;106307;1281;24299;-77
2023/12/18 05:11:24;;;;;;;8.90;8.00;;;;;;;4.42;94.70;99123.79;106745;1271;22561;-77
2023/12/18 05:13:52;;;;;;;9.50;8.30;;;;;;;4.41;94.80;99124.56;106283;1268;22550;-78
2023/12/18 05:16:20;;;;;;;9.70;8.70;;;;;;;4.40;94.81;99128.05;106259;1260;25745;-77
2023/12/18 05:18:49;;;;;;;8.20;7.30;;;;;;;4.38;94.61;99128.81;106729;1281;24273;-78
2023/12/18 05:21:17;;;;;;;8.30;7.10;;;;;;;4.40;94.73;99126.98;106716;1267;24225;-77
2023/12/18 05:23:49;;;;;;;8.60;7.70;;;;;;;4.41;94.86;99132.15;106725;1283;22550;-77
2023/12/18 05:26:17;;;;;;;10.10;8.60;;;;;;;4.42;94.99;99130.89;106715;1271;25586;-77
2023/12/18 05:28:45;;;;;;;8.60;7.70;;;;;;;4.40;94.62;99134.94;106353;1270;22543;-76
2023/12/18 05:31:15;;;;;;;9.10;8.10;;;;;;;4.40;94.53;99136.59;106703;1283;22536;-78
2023/12/18 05:33:43;;;;;;;8.70;7.80;;;;;;;4.43;94.75;99133.36;106655;1271;22559;-78
2023/12/18 05:36:11;;;;;;;8.70;7.80;;;;;;;4.44;94.66;99139.52;106620;1276;22797;-78
2023/12/18 05:38:39;;;;;;;8.50;7.70;;;;;;;4.45;94.47;99137.64;106835;1271;22543;-77
2023/12/18 05:41:07;;;;;;;11.60;8.20;;;;;;;4.44;94.09;99135.95;106950;1283;22543;-76
2023/12/18 05:43:35;;;;;;;10.00;8.40;;;;;;;4.43;94.34;99140.23;106407;1284;22547;-78
2023/12/18 05:46:03;;;;;;;11.50;8.40;;;;;;;4.41;93.95;99145.16;106619;1283;25407;-78
2023/12/18 05:48:31;;;;;;;8.60;7.40;;;;;;;4.42;94.11;99152.13;106701;1260;24222;-77
2023/12/18 05:51:00;;;;;;;9.10;8.10;;;;;;;4.43;94.37;99153.42;106651;1283;25389;-78
2023/12/18 05:53:28;;;;;;;9.10;8.20;;;;;;;4.45;94.21;99157.71;106664;1284;22946;-77
2023/12/18 05:55:56;;;;;;;9.50;8.50;;;;;;;4.43;94.33;99151.36;106380;1270;22579;-77
2023/12/18 05:58:24;;;;;;;9.10;8.10;;;;;;;4.43;94.19;99157.33;106389;1270;25368;-80
2023/12/18 06:00:52;;;;;;;8.70;7.60;;;;;;;4.42;94.47;99153.94;106797;1276;22541;-76
2023/12/18 06:03:20;;;;;;;8.10;7.20;;;;;;;4.41;94.59;99157.61;106423;1283;24376;-77
2023/12/18 06:05:48;;;;;;;8.30;7.40;;;;;;;4.44;94.82;99159.12;106938;1278;25634;-77
2023/12/18 06:08:17;;;;;;;9.80;8.20;;;;;;;4.43;94.91;99155.56;106871;1281;22551;-77
2023/12/18 06:10:44;;;;;;;9.00;8.00;;;;;;;4.40;94.95;99156.98;106876;1278;22653;-75
2023/12/18 06:13:12;;;;;;;9.50;7.90;;;;;;;4.40;94.68;99159.66;106426;1283;26670;-77
2023/12/18 06:15:40;;;;;;;8.90;8.00;;;;;;;4.43;94.81;99160.31;106365;1271;22593;-76
2023/12/18 06:18:08;;;;;;;9.00;8.10;;;;;;;4.49;95.32;99158.34;106338;1276;24325;-76
2023/12/18 06:20:37;;;;;;;9.00;8.10;;;;;;;4.52;95.15;99157.23;106301;1283;24249;-77
2023/12/18 06:23:05;;;;;;;9.70;8.50;;;;;;;4.49;94.79;99157.98;106535;1283;22592;-77
2023/12/18 06:25:33;;;;;;;11.00;8.00;;;;;;;4.46;94.75;99153.91;106334;1270;25505;-77
2023/12/18 06:28:01;;;;;;;9.50;8.60;;;;;;;4.44;95.38;99147.37;106372;1269;22632;-78
2023/12/18 06:30:29;;;;;;;10.80;9.80;;;;;;;4.42;95.53;99148.77;106167;1276;22791;-77
2023/12/18 06:32:58;;;;;;;10.60;9.60;;;;;;;4.37;95.49;99143.13;106690;1283;24228;-77
2023/12/18 06:35:26;;;;;;;10.20;9.10;;;;;;;4.32;95.34;99144.34;106314;1283;22552;-76
2023/12/18 06:37:54;;;;;;;10.70;9.60;;;;;;;4.29;95.46;99150.42;106393;1283;22537;-77
2023/12/18 06:40:22;;;;;;;14.00;12.50;;;;;;;4.26;95.53;99147.55;106434;1283;24393;-78
2023/12/18 06:42:50;;;;;;;11.70;10.20;;;;;;;4.23;95.73;99152.60;106390;1283;24395;-78
2023/12/18 06:45:18;;;;;;;11.00;9.10;;;;;;;4.23;96.12;99149.60;106368;1261;25441;-78
2023/12/18 06:47:46;;;;;;;9.90;8.90;;;;;;;4.20;95.70;99147.66;106758;1271;22549;-77
2023/12/18 06:50:15;;;;;;;11.70;10.50;;;;;;;4.18;95.71;99143.92;106296;1283;25500;-77
2023/12/18 06:52:43;;;;;;;10.70;9.30;;;;;;;4.14;96.17;99143.98;106322;1268;22572;-77
2023/12/18 06:55:11;;;;;;;21.30;19.20;;;;;;;4.13;96.40;99150.03;106373;1283;26528;-77
2023/12/18 06:57:41;;;;;;;16.70;15.00;;;;;;;4.14;96.48;99143.81;106179;1268;25276;-77
2023/12/18 07:00:09;;;;;;;17.30;15.40;;;;;;;4.14;96.48;99143.21;106331;1268;22812;-76
2023/12/18 07:02:37;;;;;;;12.70;11.40;;;;;;;4.12;96.33;99146.44;106377;1271;22536;-76
2023/12/18 07:05:05;;;;;;;11.90;10.40;;;;;;;4.12;96.42;99149.30;106358;1278;24301;-76
2023/12/18 07:07:33;;;;;;;13.40;12.10;;;;;;;4.12;96.49;99148.41;106307;1270;22652;-76
2023/12/18 07:10:02;;;;;;;12.60;11.30;;;;;;;4.15;96.71;99147.25;106273;1277;22595;-76
2023/12/18 07:12:30;;;;;;;14.20;12.80;;;;;;;4.17;96.61;99147.34;106418;1283;23371;-76
2023/12/18 07:14:58;;;;;;;12.80;11.60;;;;;;;4.18;96.97;99146.27;106317;1283;22561;-77
2023/12/18 07:17:27;;;;;;;14.10;12.60;;;;;;;4.20;96.75;99149.04;106412;1272;23705;-76
2023/12/18 07:19:55;;;;;;;15.70;13.90;;;;;;;4.21;96.78;99155.70;106387;1284;24557;-76
2023/12/18 07:22:23;;;;;;;20.60;17.10;;;;;;;4.23;96.72;99156.16;106351;1283;22553;-76
2023/12/18 07:24:51;;;;;;;52.90;26.90;;;;;;;4.27;96.97;99155.36;106354;1283;24389;-77
2023/12/18 07:27:19;;;;;;;39.00;21.40;;;;;;;4.34;97.10;99154.17;106590;1273;22685;-78
2023/12/18 07:29:47;;;;;;;31.90;18.10;;;;;;;4.40;97.11;99150.77;106779;1276;22540;-77
2023/12/18 07:32:15;;;;;;;31.50;18.70;;;;;;;4.46;96.81;99144.70;106338;1283;23920;-76
2023/12/18 07:34:44;;;;;;;14.80;12.90;;;;;;;4.48;96.85;99148.01;106388;1283;23027;-76
2023/12/18 07:37:13;;;;;;;12.40;11.10;;;;;;;4.50;96.88;99149.91;106393;1269;22547;-77
2023/12/18 07:39:41;;;;;;;12.90;11.60;;;;;;;4.57;97.32;99150.86;106408;1283;22941;-76
2023/12/18 07:42:09;;;;;;;13.20;12.00;;;;;;;4.64;97.26;99153.23;106414;1271;25272;-77
2023/12/18 07:44:37;;;;;;;13.30;12.00;;;;;;;4.68;97.08;99156.95;106302;1284;22636;-76
2023/12/18 07:47:07;;;;;;;14.50;12.20;;;;;;;4.71;96.63;99161.45;106266;1283;23623;-77
2023/12/18 07:49:35;;;;;;;13.40;11.90;;;;;;;4.75;96.69;99165.30;106306;1273;24469;-76
2023/12/18 07:52:04;;;;;;;13.10;11.70;;;;;;;4.80;96.58;99158.48;106282;1283;24258;-77
2023/12/18 07:54:32;;;;;;;14.60;12.30;;;;;;;4.86;96.49;99155.31;106520;1279;22543;-77
2023/12/18 07:57:04;;;;;;;14.30;10.70;;;;;;;4.91;96.68;99160.02;106573;1284;22582;-76
2023/12/18 07:59:32;;;;;;;13.60;11.40;;;;;;;4.96;96.22;99153.83;106169;1274;22783;-76
2023/12/18 08:02:01;;;;;;;12.50;11.20;;;;;;;4.99;95.98;99157.96;106217;1283;22540;-75
2023/12/18 08:04:29;;;;;;;14.90;13.50;;;;;;;5.04;96.05;99154.07;106288;1283;22757;-77
2023/12/18 08:06:57;;;;;;;13.40;12.10;;;;;;;5.10;96.33;99154.26;106394;1273;23602;-76
2023/12/18 08:09:26;;;;;;;12.70;10.70;;;;;;;5.15;96.11;99149.20;106292;1281;22573;-77
2023/12/18 08:11:54;;;;;;;14.10;11.60;;;;;;;5.19;95.68;99150.52;106369;1268;23147;-77
2023/12/18 08:14:22;;;;;;;12.30;11.10;;;;;;;5.21;95.78;99145.96;106283;1283;24388;-75
2023/12/18 08:16:50;;;;;;;11.60;10.00;;;;;;;5.26;95.82;99137.31;106268;1275;22614;-77
2023/12/18 08:19:18;;;;;;;10.80;9.70;;;;;;;5.32;95.83;99137.92;106129;1270;25501;-76
2023/12/18 08:21:47;;;;;;;13.10;10.50;;;;;;;5.39;95.29;99134.92;106447;1283;24297;-76
2023/12/18 08:24:15;;;;;;;11.30;10.10;;;;;;;5.44;94.97;99131.88;106303;1283;25419;-76
2023/12/18 08:26:47;;;;;;;12.50;11.20;;;;;;;5.49;95.00;99130.80;106287;1268;22540;-76
2023/12/18 08:29:16;;;;;;;11.80;10.70;;;;;;;5.53;94.72;99129.45;106364;1283;24388;-76
2023/12/18 08:31:43;;;;;;;12.60;11.40;;;;;;;5.61;94.55;99129.34;106275;1268;22778;-77
2023/12/18 08:34:12;;;;;;;14.00;12.60;;;;;;;5.68;95.00;99131.53;106603;1268;22751;-75
2023/12/18 08:36:40;;;;;;;12.20;10.90;;;;;;;5.76;94.81;99128.37;106284;1273;24291;-75
2023/12/18 08:39:08;;;;;;;12.60;10.80;;;;;;;5.82;94.31;99130.35;106266;1277;25448;-77
2023/12/18 08:41:38;;;;;;;14.30;12.90;;;;;;;5.87;94.16;99130.08;106410;1268;24231;-76
2023/12/18 08:44:07;;;;;;;10.50;9.50;;;;;;;5.96;93.92;99131.23;106395;1283;22782;-78
2023/12/18 08:46:36;;;;;;;11.40;10.30;;;;;;;6.05;93.12;99126.08;107117;1268;23954;-77
2023/12/18 08:49:04;;;;;;;11.30;10.10;;;;;;;6.11;92.93;99124.35;106543;1270;22589;-77
2023/12/18 08:51:32;;;;;;;12.10;10.80;;;;;;;6.17;92.25;99119.23;106377;1268;22550;-78
2023/12/18 08:54:04;;;;;;;13.90;9.70;;;;;;;6.22;92.28;99120.45;106355;1278;22779;-74
2023/12/18 08:56:33;;;;;;;10.00;9.00;;;;;;;6.30;92.34;99124.33;106364;1268;22558;-75
2023/12/18 08:59:01;;;;;;;11.00;9.90;;;;;;;6.40;92.16;99121.55;106430;1283;22561;-77
2023/12/18 09:01:29;;;;;;;12.00;8.70;;;;;;;6.48;92.41;99120.04;106383;1281;22537;-77
2023/12/18 09:03:57;;;;;;;10.60;9.50;;;;;;;6.56;91.49;99119.37;106838;1267;24088;-78
2023/12/18 09:06:25;;;;;;;9.90;9.00;;;;;;;6.63;90.84;99118.63;106767;1280;22541;-76
2023/12/18 09:08:54;;;;;;;10.90;9.80;;;;;;;6.69;89.70;99112.89;106331;1279;24466;-77
2023/12/18 09:11:22;;;;;;;11.00;9.20;;;;;;;6.74;89.02;99113.29;106669;1274;22540;-77
2023/12/18 09:13:51;;;;;;;9.50;8.50;;;;;;;6.80;89.29;99112.84;106884;1268;22663;-75
2023/12/18 09:16:19;;;;;;;8.90;7.80;;;;;;;6.89;88.17;99113.52;106340;1283;24359;-77
2023/12/18 09:18:47;;;;;;;10.10;8.30;;;;;;;6.95;88.30;99110.17;106354;1271;24309;-76
2023/12/18 09:21:15;;;;;;;11.60;8.50;;;;;;;7.00;86.83;99110.29;106345;1270;23887;-76
2023/12/18 09:23:44;;;;;;;9.50;8.60;;;;;;;7.02;86.18;99101.34;106418;1271;22558;-75
2023/12/18 09:26:14;;;;;;;9.80;8.80;;;;;;;7.05;85.92;99107.44;106441;1269;25287;-75
2023/12/18 09:28:42;;;;;;;10.80;9.50;;;;;;;7.07;86.10;99101.79;106356;1283;25471;-81
2023/12/18 09:31:11;;;;;;;13.70;11.70;;;;;;;7.12;85.93;99101.64;106428;1268;23110;-76
2023/12/18 09:33:39;;;;;;;13.80;10.70;;;;;;;7.17;86.41;99102.56;106250;1271;22537;-75
2023/12/18 09:36:08;;;;;;;12.40;11.10;;;;;;;7.24;85.78;99099.88;106354;1280;25512;-73
2023/12/18 09:38:37;;;;;;;11.30;10.10;;;;;;;7.27;85.93;99090.11;106364;1270;23505;-75
2023/12/18 09:41:05;;;;;;;10.90;9.80;;;;;;;7.31;85.59;99089.89;106483;1271;22547;-74
2023/12/18 09:43:34;;;;;;;11.70;10.50;;;;;;;7.34;84.61;99086.27;106442;1273;23249;-75
2023/12/18 09:46:02;;;;;;;11.30;10.00;;;;;;;7.34;84.55;99090.25;106433;1277;23485;-76
2023/12/18 09:48:30;;;;;;;11.90;10.50;;;;;;;7.29;84.10;99074.58;106391;1271;22538;-76
2023/12/18 09:51:00;;;;;;;13.80;12.20;;;;;;;7.38;84.44;99077.21;106399;1271;22738;-76
2023/12/18 09:53:29;;;;;;;10.40;9.30;;;;;;;7.44;84.98;99072.98;106261;1280;169146;-75
2023/12/18 09:55:58;;;;;;;12.60;10.30;;;;;;;7.50;84.85;99076.51;106335;1269;22562;-76
2023/12/18 09:58:26;;;;;;;10.70;9.60;;;;;;;7.56;84.38;99079.05;106378;1271;22605;-75
2023/12/18 10:00:55;;;;;;;10.50;8.90;;;;;;;7.60;83.70;99072.13;106503;1280;22543;-75
2023/12/18 10:03:23;;;;;;;9.90;8.90;;;;;;;7.62;83.45;99065.98;106985;1271;22773;-75
2023/12/18 10:05:51;;;;;;;13.00;10.40;;;;;;;7.65;82.98;99065.75;106534;1283;24289;-74
2023/12/18 10:08:21;;;;;;;11.30;10.20;;;;;;;7.68;82.85;99061.17;106486;1278;22609;-75
2023/12/18 10:10:49;;;;;;;12.30;10.70;;;;;;;7.72;83.17;99057.98;106415;1268;22537;-74
2023/12/18 10:13:17;;;;;;;10.70;9.60;;;;;;;7.77;82.47;99052.56;106448;1283;22729;-76
2023/12/18 10:15:45;;;;;;;9.70;8.50;;;;;;;7.82;82.15;99047.63;106411;1271;22541;-77
2023/12/18 10:18:16;;;;;;;11.50;10.20;;;;;;;7.84;82.29;99038.65;106542;1271;23133;-75
2023/12/18 10:20:48;;;;;;;11.20;9.40;;;;;;;7.91;82.25;99047.14;106445;1271;22560;-76
2023/12/18 10:23:17;;;;;;;9.60;8.50;;;;;;;8.01;82.61;99048.30;106515;1280;24478;-77
2023/12/18 10:25:45;;;;;;;11.40;10.20;;;;;;;8.09;81.98;99047.15;106607;1271;22559;-76
2023/12/18 10:28:13;;;;;;;13.40;12.10;;;;;;;8.15;81.54;99044.73;107153;1268;22584;-76
2023/12/18 10:30:41;;;;;;;10.40;9.30;;;;;;;8.22;81.39;99031.91;106735;1271;24344;-75
2023/12/18 10:33:09;;;;;;;9.60;8.60;;;;;;;8.29;81.78;99022.61;106691;1283;22619;-77
2023/12/18 10:35:45;;;;;;;10.80;8.70;;;;;;;8.36;80.71;99034.44;106695;1261;26568;-76
2023/12/18 10:38:20;;;;;;;9.80;8.70;;;;;;;8.38;79.97;99031.15;106481;1283;25987;-76
2023/12/18 10:40:54;;;;;;;10.90;9.40;;;;;;;8.41;79.79;99021.52;106459;1284;23134;-77
2023/12/18 10:43:27;;;;;;;16.50;12.00;;;;;;;8.46;80.11;99024.46;106498;1281;24257;-76
2023/12/18 10:45:57;;;;;;;15.90;12.60;;;;;;;8.52;80.31;99019.52;107046;1268;22696;-78
2023/12/18 10:48:25;;;;;;;11.70;9.00;;;;;;;8.58;79.34;99014.71;106541;1271;25445;-78
2023/12/18 10:50:56;;;;;;;17.20;14.00;;;;;;;8.62;79.14;99031.08;107083;1276;22715;-78
2023/12/18 10:53:25;;;;;;;19.10;14.70;;;;;;;8.67;79.01;99015.84;106428;1271;22562;-79
2023/12/18 10:55:56;;;;;;;9.40;8.40;;;;;;;8.71;79.27;99003.95;107006;1268;22565;-78
2023/12/18 10:58:24;;;;;;;11.00;8.70;;;;;;;8.77;78.14;99011.08;106907;1283;22535;-78
2023/12/18 11:00:52;;;;;;;13.10;9.60;;;;;;;8.79;77.89;98998.94;106464;1268;22652;-78
2023/12/18 11:03:26;;;;;;;9.80;8.60;;;;;;;8.81;77.09;99003.15;106916;1281;22560;-78
2023/12/18 11:05:55;;;;;;;;;;;;;;;8.85;76.78;98991.41;106901;1278;22538;-78
2023/12/18 11:08:24;;;;;;;8.90;7.00;;;;;;;8.87;77.03;98988.19;106903;1271;22550;-78
2023/12/18 11:10:54;;;;;;;8.50;7.60;;;;;;;8.93;77.31;98986.23;106843;1273;24405;-77
2023/12/18 11:13:28;;;;;;;11.50;8.40;;;;;;;8.99;76.06;98979.42;106472;1268;22552;-77
2023/12/18 11:16:05;;;;;;;9.10;7.50;;;;;;;9.06;76.79;98973.11;106386;1271;22595;-77
2023/12/18 11:18:54;;;;;;;8.20;6.70;;;;;;;9.29;76.55;98968.24;106332;1268;25526;-77
2023/12/18 11:21:24;;;;;;;21.10;13.30;;;;;;;10.00;76.71;98960.64;106319;1280;22550;-78
2023/12/18 11:23:52;;;;;;;10.60;7.30;;;;;;;10.58;74.42;98955.79;106339;1273;25447;-77
2023/12/18 11:26:37;;;;;;;9.00;7.10;;;;;;;11.11;74.02;98951.53;106422;1268;25623;-77
2023/12/18 11:29:40;;;;;;;10.60;8.00;;;;;;;11.93;72.77;98954.25;106497;1284;23209;-77
2023/12/18 11:32:32;;;;;;;8.20;6.50;;;;;;;13.30;67.18;98958.45;106343;1272;24382;-78